Time;durP1;ratioP1;P1;durP2;ratioP2;P2;SDS_P1;SDS_P2;PMS_P1;PMS_P2;Temp;Humidity;BMP_temperature;BMP_pressure;BME280_temperature;BME280_humidity;BME280_pressure;Samples;Min_cycle;Max_cycle;Signal;HPM_P1;HPM_P2
2023/06/21 00:00:41;;;;;;;;;;;19.30;91.50;;;;;;5003143;28;19930;-80
2023/06/21 00:03:08;;;;;;;;;;;19.30;91.60;;;;;;4991344;28;19940;-81
2023/06/21 00:05:38;;;;;;;;;;;19.30;91.20;;;;;;5009748;28;20702;-81
2023/06/21 00:08:05;;;;;;;;;;;19.30;91.30;;;;;;5012142;28;19975;-81
2023/06/21 00:10:32;;;;;;;;;;;19.20;91.10;;;;;;5010168;28;20441;-81
2023/06/21 00:12:58;;;;;;;;;;;19.20;91.40;;;;;;5010008;28;20332;-80
2023/06/21 00:15:25;;;;;;;;;;;19.20;92.00;;;;;;5015489;28;20014;-80
2023/06/21 00:17:52;;;;;;;;;;;19.20;92.30;;;;;;4994486;28;20433;-80
2023/06/21 00:20:19;;;;;;;;;;;19.20;92.20;;;;;;5009145;28;19929;-81
2023/06/21 00:22:46;;;;;;;;;;;19.20;92.60;;;;;;5009939;28;20746;-80
2023/06/21 00:25:14;;;;;;;;;;;19.20;92.80;;;;;;5010712;28;19935;-80
2023/06/21 00:27:44;;;;;;;;;;;19.20;93.00;;;;;;5009710;28;19925;-80
2023/06/21 00:30:11;;;;;;;;;;;19.20;93.40;;;;;;4997427;28;19999;-80
2023/06/21 00:32:38;;;;;;;;;;;19.20;93.20;;;;;;5013019;28;19929;-81
2023/06/21 00:38:16;;;;;;;;;;;19.20;93.30;;;;;;5010401;28;20314;-81
2023/06/21 00:40:43;;;;;;;;;;;19.20;93.40;;;;;;5009193;28;19976;-81
2023/06/21 00:43:09;;;;;;;;;;;19.20;93.50;;;;;;4993465;28;20016;-81
2023/06/21 00:48:45;;;;;;;;;;;19.10;93.40;;;;;;5001651;28;19929;-81
2023/06/21 00:51:13;;;;;;;;;;;19.10;93.50;;;;;;5007379;28;19925;-80
2023/06/21 00:53:40;;;;;;;;;;;19.10;93.50;;;;;;5007051;28;19945;-80
2023/06/21 00:56:07;;;;;;;;;;;19.10;93.80;;;;;;4999972;28;19948;-80
2023/06/21 00:58:34;;;;;;;;;;;19.10;94.20;;;;;;4990373;28;19975;-80
2023/06/21 01:01:01;;;;;;;;;;;19.10;94.50;;;;;;5006212;28;19937;-79
2023/06/21 01:03:27;;;;;;;;;;;19.10;94.50;;;;;;5006680;28;19979;-80
2023/06/21 01:06:12;;;;;;;;;;;19.10;94.30;;;;;;5007579;28;19926;-80
2023/06/21 01:08:38;;;;;;;;;;;19.00;94.30;;;;;;5004832;28;19976;-80
2023/06/21 01:11:08;;;;;;;;;;;19.00;94.40;;;;;;5009219;22;19925;-79
2023/06/21 01:13:35;;;;;;;;;;;19.00;94.30;;;;;;4995797;28;20044;-80
2023/06/21 01:16:03;;;;;;;;;;;19.00;94.40;;;;;;4996500;28;20032;-80
2023/06/21 01:18:31;;;;;;;;;;;19.00;94.60;;;;;;4980640;28;20016;-80
2023/06/21 01:20:59;;;;;;;;;;;19.00;95.00;;;;;;4996858;28;20347;-80
2023/06/21 01:23:25;;;;;;;;;;;19.00;95.10;;;;;;4997166;28;19940;-80
2023/06/21 01:26:03;;;;;;;;;;;19.00;95.30;;;;;;4997645;28;20437;-80
2023/06/21 01:28:49;;;;;;;;;;;19.00;95.50;;;;;;4988455;28;20552;-81
2023/06/21 01:31:16;;;;;;;;;;;19.00;95.40;;;;;;5007742;28;20052;-80
2023/06/21 01:33:44;;;;;;;;;;;19.00;95.70;;;;;;5009044;28;19932;-80
2023/06/21 01:36:10;;;;;;;;;;;19.00;95.70;;;;;;4991900;28;20333;-80
2023/06/21 01:38:37;;;;;;;;;;;19.00;95.60;;;;;;4994337;28;20395;-80
2023/06/21 01:41:06;;;;;;;;;;;19.00;95.80;;;;;;4993862;28;19975;-80
2023/06/21 01:43:33;;;;;;;;;;;19.00;96.00;;;;;;4994836;28;20021;-79
2023/06/21 01:46:01;;;;;;;;;;;19.00;95.90;;;;;;5010256;28;19973;-81
2023/06/21 01:48:29;;;;;;;;;;;19.00;96.00;;;;;;4993491;28;19936;-80
2023/06/21 01:50:57;;;;;;;;;;;19.00;96.00;;;;;;4994038;28;19971;-80
2023/06/21 01:53:25;;;;;;;;;;;19.00;95.80;;;;;;5010265;28;19929;-81
2023/06/21 01:55:52;;;;;;;;;;;19.00;95.90;;;;;;5004794;28;20008;-81
2023/06/21 01:58:19;;;;;;;;;;;19.00;96.00;;;;;;5010598;28;20011;-82
2023/06/21 02:00:46;;;;;;;;;;;19.00;96.00;;;;;;4994138;28;19976;-81
2023/06/21 02:03:14;;;;;;;;;;;19.00;96.20;;;;;;5008246;28;20709;-81
2023/06/21 02:05:42;;;;;;;;;;;19.00;96.30;;;;;;4995221;28;19992;-81
2023/06/21 02:08:15;;;;;;;;;;;19.00;96.20;;;;;;5009808;28;19929;-81
2023/06/21 02:10:46;;;;;;;;;;;19.00;96.10;;;;;;4993045;28;19940;-81
2023/06/21 02:13:14;;;;;;;;;;;19.00;95.90;;;;;;5009151;28;20012;-81
2023/06/21 02:15:43;;;;;;;;;;;19.00;96.10;;;;;;4996003;28;20008;-81
2023/06/21 02:18:10;;;;;;;;;;;19.00;96.60;;;;;;5009220;28;19991;-81
2023/06/21 02:20:38;;;;;;;;;;;19.10;96.50;;;;;;5010504;28;20378;-81
2023/06/21 02:23:05;;;;;;;;;;;19.20;96.40;;;;;;4993025;28;20045;-80
2023/06/21 02:25:35;;;;;;;;;;;19.30;96.40;;;;;;5010565;28;19945;-80
2023/06/21 02:28:02;;;;;;;;;;;19.30;95.90;;;;;;4994086;23;19930;-81
2023/06/21 02:30:29;;;;;;;;;;;19.40;95.70;;;;;;4968146;28;19926;-81
2023/06/21 02:32:56;;;;;;;;;;;19.40;96.80;;;;;;4980183;28;19941;-82
2023/06/21 02:35:23;;;;;;;;;;;19.50;97.70;;;;;;4960365;28;20186;-82
2023/06/21 02:37:50;;;;;;;;;;;19.40;97.90;;;;;;4977913;28;20032;-82
2023/06/21 02:40:17;;;;;;;;;;;19.30;98.20;;;;;;4978366;28;20312;-82
2023/06/21 02:42:44;;;;;;;;;;;19.20;99.00;;;;;;4975589;28;21584;-83
2023/06/21 02:45:11;;;;;;;;;;;19.10;99.10;;;;;;4971747;28;19933;-83
2023/06/21 02:47:37;;;;;;;;;;;19.00;99.40;;;;;;4976400;28;19989;-83
2023/06/21 02:50:05;;;;;;;;;;;18.90;99.50;;;;;;4976466;28;19933;-83
2023/06/21 02:52:31;;;;;;;;;;;18.90;99.90;;;;;;4956751;28;20006;-82
2023/06/21 02:54:58;;;;;;;;;;;18.80;100.00;;;;;;4976899;28;20056;-83
2023/06/21 02:57:25;;;;;;;;;;;18.80;100.00;;;;;;4976683;28;19938;-83
2023/06/21 02:59:52;;;;;;;;;;;18.80;100.00;;;;;;4960147;28;19985;-83
2023/06/21 03:02:18;;;;;;;;;;;18.80;100.00;;;;;;4974603;28;19950;-83
2023/06/21 03:04:45;;;;;;;;;;;18.70;100.00;;;;;;4957532;28;19934;-83
2023/06/21 03:07:12;;;;;;;;;;;18.70;100.00;;;;;;4959435;28;19934;-83
2023/06/21 03:09:39;;;;;;;;;;;18.70;100.00;;;;;;4975947;28;19942;-82
2023/06/21 03:12:08;;;;;;;;;;;18.60;100.00;;;;;;4976309;28;20048;-82
2023/06/21 03:14:37;;;;;;;;;;;18.60;100.00;;;;;;4978451;28;19938;-82
2023/06/21 03:17:04;;;;;;;;;;;18.60;100.00;;;;;;4977085;28;19957;-82
2023/06/21 03:19:31;;;;;;;;;;;18.50;100.00;;;;;;4958789;28;20135;-82
2023/06/21 03:21:58;;;;;;;;;;;18.50;100.00;;;;;;4976283;28;20365;-82
2023/06/21 03:24:26;;;;;;;;;;;18.50;100.00;;;;;;4960228;28;20293;-82
2023/06/21 03:26:53;;;;;;;;;;;18.50;100.00;;;;;;4976539;28;20072;-82
2023/06/21 03:29:20;;;;;;;;;;;18.50;100.00;;;;;;4976834;28;20028;-83
2023/06/21 03:31:47;;;;;;;;;;;18.40;100.00;;;;;;4976692;28;20435;-82
2023/06/21 03:34:14;;;;;;;;;;;18.40;100.00;;;;;;4960935;28;19940;-81
2023/06/21 03:36:41;;;;;;;;;;;18.40;100.00;;;;;;4959043;28;20407;-81
2023/06/21 03:39:07;;;;;;;;;;;18.40;100.00;;;;;;4975660;28;19964;-82
2023/06/21 03:41:34;;;;;;;;;;;18.40;100.00;;;;;;4974970;28;20104;-82
2023/06/21 03:44:01;;;;;;;;;;;18.40;100.00;;;;;;4958785;28;19973;-81
2023/06/21 03:46:27;;;;;;;;;;;18.40;100.00;;;;;;4976154;28;19940;-81
2023/06/21 03:48:55;;;;;;;;;;;18.30;100.00;;;;;;4976326;28;20256;-81
2023/06/21 03:51:22;;;;;;;;;;;18.30;100.00;;;;;;4976013;28;20261;-82
2023/06/21 03:53:49;;;;;;;;;;;18.30;100.00;;;;;;4975088;28;19940;-82
2023/06/21 03:56:17;;;;;;;;;;;18.30;100.00;;;;;;4956639;28;20062;-82
2023/06/21 03:58:44;;;;;;;;;;;18.20;100.00;;;;;;4971927;28;20370;-82
2023/06/21 04:01:10;;;;;;;;;;;18.30;100.00;;;;;;4976630;28;19934;-82
2023/06/21 04:03:37;;;;;;;;;;;18.30;100.00;;;;;;4958397;28;19934;-81
2023/06/21 04:06:04;;;;;;;;;;;18.20;100.00;;;;;;4976009;28;19929;-81
2023/06/21 04:08:31;;;;;;;;;;;18.20;100.00;;;;;;4975066;28;20572;-81
2023/06/21 04:10:57;;;;;;;;;;;18.20;100.00;;;;;;4971971;28;19941;-81
2023/06/21 04:13:24;;;;;;;;;;;18.20;100.00;;;;;;4975344;28;19944;-81
2023/06/21 04:15:51;;;;;;;;;;;18.20;100.00;;;;;;4976279;28;20501;-81
2023/06/21 04:18:18;;;;;;;;;;;18.20;100.00;;;;;;4975491;28;20059;-81
2023/06/21 04:20:46;;;;;;;;;;;18.20;100.00;;;;;;4957860;28;20044;-82
2023/06/21 04:23:12;;;;;;;;;;;18.20;100.00;;;;;;4954330;28;20041;-81
2023/06/21 04:25:39;;;;;;;;;;;18.20;100.00;;;;;;4975552;28;19933;-81
2023/06/21 04:28:06;;;;;;;;;;;18.20;100.00;;;;;;4974030;28;20411;-81
2023/06/21 04:30:34;;;;;;;;;;;18.30;100.00;;;;;;4958458;28;20056;-81
2023/06/21 04:33:01;;;;;;;;;;;18.30;100.00;;;;;;4975782;28;20272;-82
2023/06/21 04:35:28;;;;;;;;;;;18.40;100.00;;;;;;4975924;28;19933;-81
2023/06/21 04:37:55;;;;;;;;;;;18.40;100.00;;;;;;4974325;28;19934;-82
2023/06/21 04:40:21;;;;;;;;;;;18.40;100.00;;;;;;4956051;28;20596;-82
2023/06/21 04:42:54;;;;;;;;;;;18.40;100.00;;;;;;4974471;28;19956;-82
2023/06/21 04:45:22;;;;;;;;;;;18.40;100.00;;;;;;4970855;28;20549;-82
2023/06/21 04:47:49;;;;;;;;;;;18.50;100.00;;;;;;4976125;28;19937;-82
2023/06/21 04:50:16;;;;;;;;;;;18.50;100.00;;;;;;4974805;28;19941;-81
2023/06/21 04:53:01;;;;;;;;;;;18.50;100.00;;;;;;4975209;28;20528;-84
2023/06/21 04:55:28;;;;;;;;;;;18.60;100.00;;;;;;4976221;28;20097;-82
2023/06/21 04:57:55;;;;;;;;;;;18.60;100.00;;;;;;4972080;28;19977;-82
2023/06/21 05:00:22;;;;;;;;;;;18.60;100.00;;;;;;4970995;28;20314;-82
2023/06/21 05:02:49;;;;;;;;;;;18.60;100.00;;;;;;4957315;28;19933;-83
2023/06/21 05:05:16;;;;;;;;;;;18.70;100.00;;;;;;4958505;28;19933;-76
2023/06/21 05:07:43;;;;;;;;;;;18.70;100.00;;;;;;4976090;28;19937;-79
2023/06/21 05:10:10;;;;;;;;;;;18.70;100.00;;;;;;4966736;28;20422;-79
2023/06/21 05:12:37;;;;;;;;;;;18.80;100.00;;;;;;4983770;28;20016;-81
2023/06/21 05:15:05;;;;;;;;;;;18.80;100.00;;;;;;4983320;28;19977;-83
2023/06/21 05:17:33;;;;;;;;;;;18.80;100.00;;;;;;4969875;28;19941;-82
2023/06/21 05:20:01;;;;;;;;;;;18.90;100.00;;;;;;4979557;28;19934;-82
2023/06/21 05:22:28;;;;;;;;;;;19.00;100.00;;;;;;4987032;28;19933;-84
2023/06/21 05:24:54;;;;;;;;;;;19.00;100.00;;;;;;4987065;28;19930;-84
2023/06/21 05:27:21;;;;;;;;;;;19.10;100.00;;;;;;4965357;28;19930;-82
2023/06/21 05:29:48;;;;;;;;;;;19.10;100.00;;;;;;4983100;28;20454;-81
2023/06/21 05:32:14;;;;;;;;;;;19.20;100.00;;;;;;4987170;28;19936;-80
2023/06/21 05:34:41;;;;;;;;;;;19.30;100.00;;;;;;4977710;28;20048;-83
2023/06/21 05:37:08;;;;;;;;;;;19.30;100.00;;;;;;4963721;28;19930;-81
2023/06/21 05:39:35;;;;;;;;;;;19.30;100.00;;;;;;4981899;28;20000;-81
2023/06/21 05:42:02;;;;;;;;;;;19.30;100.00;;;;;;4982862;28;19933;-81
2023/06/21 05:44:28;;;;;;;;;;;19.40;100.00;;;;;;4989340;28;19930;-81
2023/06/21 05:46:55;;;;;;;;;;;19.40;100.00;;;;;;4979949;28;19929;-81
2023/06/21 05:49:22;;;;;;;;;;;19.40;100.00;;;;;;4970841;28;19973;-81
2023/06/21 05:51:48;;;;;;;;;;;19.50;100.00;;;;;;4989432;28;19953;-81
2023/06/21 05:54:15;;;;;;;;;;;19.50;100.00;;;;;;4987449;28;20396;-81
2023/06/21 05:56:42;;;;;;;;;;;19.50;100.00;;;;;;4988359;28;20283;-82
2023/06/21 05:59:09;;;;;;;;;;;19.50;100.00;;;;;;4989371;28;19930;-81
2023/06/21 06:01:36;;;;;;;;;;;19.60;100.00;;;;;;4986210;28;20039;-81
2023/06/21 06:04:03;;;;;;;;;;;19.60;100.00;;;;;;4969760;28;20297;-81
2023/06/21 06:06:40;;;;;;;;;;;19.60;100.00;;;;;;4986843;28;19937;-81
2023/06/21 06:09:07;;;;;;;;;;;19.60;100.00;;;;;;4985500;28;19930;-81
2023/06/21 06:11:34;;;;;;;;;;;19.70;100.00;;;;;;4989540;28;19969;-82
2023/06/21 06:14:01;;;;;;;;;;;19.70;100.00;;;;;;4970438;28;20028;-81
2023/06/21 06:16:28;;;;;;;;;;;19.80;100.00;;;;;;4978125;28;19999;-81
2023/06/21 06:18:54;;;;;;;;;;;19.80;100.00;;;;;;4987105;28;20457;-81
2023/06/21 06:21:21;;;;;;;;;;;19.80;100.00;;;;;;4973974;28;20250;-80
2023/06/21 06:23:49;;;;;;;;;;;19.90;100.00;;;;;;4974358;28;20668;-82
2023/06/21 06:26:34;;;;;;;;;;;19.90;100.00;;;;;;4983271;28;20056;-80
2023/06/21 06:29:01;;;;;;;;;;;19.90;100.00;;;;;;4965636;28;19941;-82
2023/06/21 06:31:29;;;;;;;;;;;20.00;100.00;;;;;;4982028;28;19937;-81
2023/06/21 06:33:56;;;;;;;;;;;20.00;100.00;;;;;;4986999;28;20466;-82
2023/06/21 06:36:22;;;;;;;;;;;20.10;100.00;;;;;;4982748;28;19934;-80
2023/06/21 06:38:50;;;;;;;;;;;20.10;100.00;;;;;;4979204;28;19930;-81
2023/06/21 06:41:17;;;;;;;;;;;20.20;100.00;;;;;;4984275;28;20342;-81
2023/06/21 06:43:44;;;;;;;;;;;20.20;100.00;;;;;;4993005;28;20028;-81
2023/06/21 06:46:11;;;;;;;;;;;20.20;100.00;;;;;;4960009;28;19933;-80
2023/06/21 06:48:38;;;;;;;;;;;20.30;100.00;;;;;;4982018;28;20052;-80
2023/06/21 06:51:04;;;;;;;;;;;20.30;100.00;;;;;;4986044;28;19971;-81
2023/06/21 06:53:31;;;;;;;;;;;20.30;100.00;;;;;;4970425;28;19957;-80
2023/06/21 06:55:59;;;;;;;;;;;20.30;100.00;;;;;;4981577;28;20052;-81
2023/06/21 06:58:30;;;;;;;;;;;20.40;100.00;;;;;;4987036;28;20342;-81
2023/06/21 07:00:56;;;;;;;;;;;20.30;100.00;;;;;;4964458;28;19936;-80
2023/06/21 07:03:23;;;;;;;;;;;20.40;100.00;;;;;;4987812;28;19930;-80
2023/06/21 07:05:50;;;;;;;;;;;20.40;100.00;;;;;;4963713;28;19929;-81
2023/06/21 07:08:17;;;;;;;;;;;20.40;100.00;;;;;;4983513;28;19992;-80
2023/06/21 07:10:44;;;;;;;;;;;20.40;100.00;;;;;;4987407;28;20224;-80
2023/06/21 07:13:11;;;;;;;;;;;20.50;100.00;;;;;;4991941;28;19930;-80
2023/06/21 07:15:38;;;;;;;;;;;20.50;100.00;;;;;;4976840;28;19930;-80
2023/06/21 07:18:04;;;;;;;;;;;20.50;100.00;;;;;;4981041;28;19965;-80
2023/06/21 07:20:32;;;;;;;;;;;20.60;100.00;;;;;;4986392;28;19938;-81
2023/06/21 07:23:00;;;;;;;;;;;20.60;100.00;;;;;;4992580;28;19929;-80
2023/06/21 07:25:27;;;;;;;;;;;20.70;100.00;;;;;;4977494;28;20065;-81
2023/06/21 07:27:54;;;;;;;;;;;20.80;100.00;;;;;;4981694;28;20458;-81
2023/06/21 07:30:22;;;;;;;;;;;21.10;100.00;;;;;;4967189;28;20016;-81
2023/06/21 07:32:49;;;;;;;;;;;21.20;100.00;;;;;;4969646;28;19930;-81
2023/06/21 07:35:16;;;;;;;;;;;21.50;100.00;;;;;;4985934;28;19975;-80
2023/06/21 07:37:43;;;;;;;;;;;21.60;100.00;;;;;;4966959;28;19969;-81
2023/06/21 07:40:10;;;;;;;;;;;21.80;100.00;;;;;;4985209;28;20174;-80
2023/06/21 07:42:38;;;;;;;;;;;21.80;100.00;;;;;;4987569;28;19980;-81
2023/06/21 07:45:07;;;;;;;;;;;21.80;100.00;;;;;;4988039;28;19934;-81
2023/06/21 07:47:34;;;;;;;;;;;22.00;100.00;;;;;;4985303;28;19984;-81
2023/06/21 07:50:02;;;;;;;;;;;22.10;99.70;;;;;;4967845;28;19929;-81
2023/06/21 07:52:46;;;;;;;;;;;22.30;99.20;;;;;;4973378;28;19968;-81
2023/06/21 07:55:13;;;;;;;;;;;22.70;100.00;;;;;;4968072;28;20457;-81
2023/06/21 07:57:40;;;;;;;;;;;22.90;94.70;;;;;;4989369;28;20547;-80
2023/06/21 08:00:11;;;;;;;;;;;22.90;92.30;;;;;;4990649;28;19934;-81
2023/06/21 08:02:40;;;;;;;;;;;23.00;92.80;;;;;;4976748;28;20280;-82
2023/06/21 08:05:07;;;;;;;;;;;23.10;92.80;;;;;;4983416;28;19929;-81
2023/06/21 08:07:34;;;;;;;;;;;23.20;94.70;;;;;;4964951;28;19969;-82
2023/06/21 08:10:01;;;;;;;;;;;23.70;95.20;;;;;;4983148;28;20338;-82
2023/06/21 08:12:28;;;;;;;;;;;24.00;91.50;;;;;;4976097;28;19929;-81
2023/06/21 08:14:55;;;;;;;;;;;24.00;90.40;;;;;;4975152;28;19934;-81
2023/06/21 08:17:22;;;;;;;;;;;23.90;88.10;;;;;;4964997;28;19929;-81
2023/06/21 08:19:48;;;;;;;;;;;23.80;88.20;;;;;;4982167;28;20276;-81
2023/06/21 08:22:15;;;;;;;;;;;24.20;88.60;;;;;;4982312;28;20309;-81
2023/06/21 08:24:42;;;;;;;;;;;24.50;86.90;;;;;;4980978;28;19929;-82
2023/06/21 08:27:09;;;;;;;;;;;24.70;85.60;;;;;;4974947;28;19937;-81
2023/06/21 08:29:35;;;;;;;;;;;25.00;83.70;;;;;;4982245;28;19930;-81
2023/06/21 08:32:04;;;;;;;;;;;25.30;82.50;;;;;;4982289;28;20298;-81
2023/06/21 08:34:31;;;;;;;;;;;25.60;81.30;;;;;;4964386;28;19941;-82
2023/06/21 08:36:58;;;;;;;;;;;25.80;77.40;;;;;;4959897;28;19929;-82
2023/06/21 08:39:25;;;;;;;;;;;26.00;79.20;;;;;;4965379;28;20032;-82
2023/06/21 08:41:54;;;;;;;;;;;26.20;77.20;;;;;;4985326;28;19989;-82
2023/06/21 08:44:21;;;;;;;;;;;26.10;73.10;;;;;;4968190;28;20020;-82
2023/06/21 08:46:49;;;;;;;;;;;26.00;75.30;;;;;;4985784;28;19934;-82
2023/06/21 08:49:20;;;;;;;;;;;25.80;77.40;;;;;;4985649;28;19929;-82
2023/06/21 08:51:48;;;;;;;;;;;25.70;78.10;;;;;;4991930;28;19937;-82
2023/06/21 08:54:16;;;;;;;;;;;25.50;76.10;;;;;;4982353;28;19934;-82
2023/06/21 08:56:49;;;;;;;;;;;25.30;78.80;;;;;;4968700;28;19971;-82
2023/06/21 08:59:27;;;;;;;;;;;25.30;78.40;;;;;;4986025;28;19984;-82
2023/06/21 09:01:58;;;;;;;;;;;25.10;76.60;;;;;;4985272;28;19930;-82
2023/06/21 09:04:27;;;;;;;;;;;24.90;78.70;;;;;;4979280;28;19936;-82
2023/06/21 09:06:55;;;;;;;;;;;25.00;80.40;;;;;;4981275;28;19934;-82
2023/06/21 09:09:23;;;;;;;;;;;24.90;79.00;;;;;;4978159;28;20368;-81
2023/06/21 09:11:51;;;;;;;;;;;24.70;78.60;;;;;;4960391;28;19933;-82
2023/06/21 09:14:19;;;;;;;;;;;24.70;81.00;;;;;;4978059;28;19930;-81
2023/06/21 09:16:46;;;;;;;;;;;24.80;78.10;;;;;;4979677;28;19929;-82
2023/06/21 09:19:13;;;;;;;;;;;24.80;79.40;;;;;;4968034;28;19936;-82
2023/06/21 09:21:41;;;;;;;;;;;25.10;80.40;;;;;;4983896;28;20442;-82
2023/06/21 09:24:07;;;;;;;;;;;25.50;78.00;;;;;;4985407;28;19929;-82
2023/06/21 09:26:35;;;;;;;;;;;25.90;76.40;;;;;;4978501;28;19937;-82
2023/06/21 09:29:02;;;;;;;;;;;26.00;74.50;;;;;;4959842;28;20467;-82
2023/06/21 09:31:29;;;;;;;;;;;26.10;73.10;;;;;;4961090;28;20397;-82
2023/06/21 09:33:57;;;;;;;;;;;26.20;73.90;;;;;;4977930;28;20032;-82
2023/06/21 09:36:24;;;;;;;;;;;26.50;72.90;;;;;;4985265;28;19929;-82
2023/06/21 09:38:51;;;;;;;;;;;26.60;72.30;;;;;;4961155;28;19936;-82
2023/06/21 09:41:19;;;;;;;;;;;26.70;70.40;;;;;;4986562;28;19929;-82
2023/06/21 09:43:46;;;;;;;;;;;26.80;72.70;;;;;;4984568;28;19929;-82
2023/06/21 09:46:13;;;;;;;;;;;26.80;70.80;;;;;;4973101;28;19936;-82
2023/06/21 09:48:40;;;;;;;;;;;26.60;69.70;;;;;;4984524;28;19926;-82
2023/06/21 09:51:11;;;;;;;;;;;26.40;71.80;;;;;;4967352;28;19964;-82
2023/06/21 09:53:41;;;;;;;;;;;26.20;70.50;;;;;;4983198;28;20322;-82
2023/06/21 09:56:08;;;;;;;;;;;26.00;71.40;;;;;;4980494;28;20602;-82
2023/06/21 09:58:35;;;;;;;;;;;25.80;72.10;;;;;;4984303;28;20040;-82
2023/06/21 10:01:06;;;;;;;;;;;25.70;72.00;;;;;;4967408;28;19942;-82
2023/06/21 10:03:33;;;;;;;;;;;25.50;72.30;;;;;;4963563;28;20626;-82
2023/06/21 10:06:01;;;;;;;;;;;25.40;72.10;;;;;;4983410;28;20672;-82
2023/06/21 10:08:29;;;;;;;;;;;25.20;75.40;;;;;;4967375;28;19929;-82
2023/06/21 10:10:56;;;;;;;;;;;25.50;74.70;;;;;;4984577;28;19929;-82
2023/06/21 10:13:25;;;;;;;;;;;26.00;73.00;;;;;;4984901;28;20566;-82
2023/06/21 10:15:53;;;;;;;;;;;26.40;71.10;;;;;;4967748;28;19980;-82
2023/06/21 10:18:20;;;;;;;;;;;26.60;69.70;;;;;;4985655;28;19930;-82
2023/06/21 10:20:52;;;;;;;;;;;26.70;73.10;;;;;;4985323;28;19936;-81
2023/06/21 10:23:20;;;;;;;;;;;27.00;68.70;;;;;;4967104;28;20024;-82
2023/06/21 10:25:49;;;;;;;;;;;27.00;67.90;;;;;;4978381;28;20038;-82
2023/06/21 10:28:17;;;;;;;;;;;26.80;68.20;;;;;;4980632;28;19977;-82
2023/06/21 10:30:44;;;;;;;;;;;26.80;72.40;;;;;;4982721;28;19930;-82
2023/06/21 10:33:13;;;;;;;;;;;26.90;71.30;;;;;;4979964;28;19936;-82
2023/06/21 10:35:45;;;;;;;;;;;27.10;67.80;;;;;;4991822;28;20430;-82
2023/06/21 10:38:21;;;;;;;;;;;27.50;67.20;;;;;;4983354;28;20035;-82
2023/06/21 10:40:49;;;;;;;;;;;27.80;68.00;;;;;;4984744;28;19972;-81
2023/06/21 10:43:16;;;;;;;;;;;27.70;63.90;;;;;;4985105;28;20349;-81
2023/06/21 10:45:44;;;;;;;;;;;27.60;68.10;;;;;;4967886;28;19938;-81
2023/06/21 10:48:11;;;;;;;;;;;27.80;66.00;;;;;;4967094;28;19937;-81
2023/06/21 10:50:41;;;;;;;;;;;28.10;64.90;;;;;;4959945;28;19936;-81
2023/06/21 10:53:08;;;;;;;;;;;28.10;62.90;;;;;;4987388;28;19929;-81
2023/06/21 10:55:39;;;;;;;;;;;28.20;64.30;;;;;;4982534;28;19930;-81
2023/06/21 10:58:06;;;;;;;;;;;28.30;63.80;;;;;;4971985;28;19936;-81
2023/06/21 11:00:33;;;;;;;;;;;28.60;64.90;;;;;;4984393;28;19933;-81
2023/06/21 11:03:00;;;;;;;;;;;28.80;63.10;;;;;;4980460;28;19973;-81
2023/06/21 11:05:27;;;;;;;;;;;28.70;58.80;;;;;;4983533;28;19929;-81
2023/06/21 11:08:00;;;;;;;;;;;28.60;60.40;;;;;;4967174;28;19930;-81
2023/06/21 11:10:39;;;;;;;;;;;28.30;60.60;;;;;;4984720;28;20016;-81
2023/06/21 11:13:06;;;;;;;;;;;28.10;63.00;;;;;;4991080;28;19933;-81
2023/06/21 11:15:33;;;;;;;;;;;27.90;64.10;;;;;;4967221;28;19976;-81
2023/06/21 11:18:01;;;;;;;;;;;27.90;64.60;;;;;;4966905;28;20422;-81
2023/06/21 11:20:31;;;;;;;;;;;27.70;60.90;;;;;;4975688;28;20487;-81
2023/06/21 11:22:59;;;;;;;;;;;27.40;60.90;;;;;;4984774;28;19930;-80
2023/06/21 11:25:27;;;;;;;;;;;27.20;64.30;;;;;;4984463;28;20302;-81
2023/06/21 11:28:12;;;;;;;;;;;27.50;64.20;;;;;;4976193;28;19940;-81
2023/06/21 11:30:39;;;;;;;;;;;27.80;61.90;;;;;;4959484;28;20254;-81
2023/06/21 11:33:17;;;;;;;;;;;27.90;62.10;;;;;;4983820;28;19934;-81
2023/06/21 11:35:51;;;;;;;;;;;27.80;59.50;;;;;;4983757;28;19936;-81
2023/06/21 11:38:18;;;;;;;;;;;27.60;62.70;;;;;;4962183;28;19936;-81
2023/06/21 11:40:45;;;;;;;;;;;27.80;61.40;;;;;;4982612;28;20295;-81
2023/06/21 11:43:15;;;;;;;;;;;27.60;61.50;;;;;;4965414;28;19936;-81
2023/06/21 11:45:42;;;;;;;;;;;27.80;63.20;;;;;;4968753;28;20457;-81
2023/06/21 11:48:12;;;;;;;;;;;28.20;62.70;;;;;;4982568;28;19937;-81
2023/06/21 11:50:43;;;;;;;;;;;28.30;58.40;;;;;;4962706;28;19936;-81
2023/06/21 11:53:33;;;;;;;;;;;28.40;61.40;;;;;;4985571;28;20482;-81
2023/06/21 11:56:00;;;;;;;;;;;28.60;61.90;;;;;;4982444;28;19929;-81
2023/06/21 11:58:27;;;;;;;;;;;28.70;59.50;;;;;;4978704;28;19930;-81
2023/06/21 12:00:54;;;;;;;;;;;28.90;60.30;;;;;;4983257;28;20453;-81
2023/06/21 12:03:25;;;;;;;;;;;29.20;60.90;;;;;;4983074;28;19936;-81
2023/06/21 12:05:56;;;;;;;;;;;29.40;57.10;;;;;;4969657;28;20338;-81
2023/06/21 12:08:28;;;;;;;;;;;29.50;56.10;;;;;;4983730;28;20056;-81
2023/06/21 12:10:59;;;;;;;;;;;29.70;54.10;;;;;;4987981;28;19996;-81
2023/06/21 12:13:27;;;;;;;;;;;29.80;56.00;;;;;;4966177;28;20291;-80
2023/06/21 12:15:58;;;;;;;;;;;29.60;55.20;;;;;;4977333;28;19934;-81
2023/06/21 12:18:25;;;;;;;;;;;29.60;53.50;;;;;;4979393;28;19942;-80
2023/06/21 12:20:56;;;;;;;;;;;29.70;54.90;;;;;;4977394;28;20400;-81
2023/06/21 12:23:23;;;;;;;;;;;29.60;54.90;;;;;;4987352;28;19941;-81
2023/06/21 12:25:51;;;;;;;;;;;29.60;54.10;;;;;;4989017;28;19956;-81
2023/06/21 12:28:19;;;;;;;;;;;29.70;55.20;;;;;;4983547;28;19933;-81
2023/06/21 12:30:46;;;;;;;;;;;29.70;55.80;;;;;;4960265;28;19966;-81
2023/06/21 12:33:13;;;;;;;;;;;29.40;53.50;;;;;;4982542;28;19936;-81
2023/06/21 12:35:39;;;;;;;;;;;29.10;54.00;;;;;;4983652;28;19934;-81
2023/06/21 12:38:13;;;;;;;;;;;29.00;57.70;;;;;;4975449;28;20394;-81
2023/06/21 12:40:53;;;;;;;;;;;28.80;56.00;;;;;;4983670;28;19980;-81
2023/06/21 12:43:38;;;;;;;;;;;28.70;54.80;;;;;;4982393;28;20076;-81
2023/06/21 12:46:06;;;;;;;;;;;28.50;56.10;;;;;;4966439;28;20223;-81
2023/06/21 12:48:33;;;;;;;;;;;28.50;58.00;;;;;;4979013;28;19934;-81
2023/06/21 12:51:01;;;;;;;;;;;28.60;57.40;;;;;;4988879;28;20366;-81
2023/06/21 12:53:29;;;;;;;;;;;28.40;53.30;;;;;;4965716;28;20108;-81
2023/06/21 12:56:03;;;;;;;;;;;28.10;55.90;;;;;;4976810;28;19934;-81
2023/06/21 12:58:30;;;;;;;;;;;28.20;56.60;;;;;;4962413;28;19930;-81
2023/06/21 13:00:57;;;;;;;;;;;28.40;58.00;;;;;;4982892;28;19960;-81
2023/06/21 13:03:23;;;;;;;;;;;28.60;53.60;;;;;;4982265;28;20311;-80
2023/06/21 13:05:50;;;;;;;;;;;28.70;54.50;;;;;;4965407;28;19929;-81
2023/06/21 13:08:17;;;;;;;;;;;28.70;55.90;;;;;;4978991;28;20441;-81
2023/06/21 13:10:44;;;;;;;;;;;28.60;54.40;;;;;;4983208;28;19930;-81
2023/06/21 13:13:11;;;;;;;;;;;28.60;54.50;;;;;;4965673;28;20421;-80
2023/06/21 13:15:37;;;;;;;;;;;28.30;55.50;;;;;;4964387;28;19977;-80
2023/06/21 13:18:04;;;;;;;;;;;28.40;55.80;;;;;;4964938;28;19980;-81
2023/06/21 13:20:35;;;;;;;;;;;28.70;58.00;;;;;;4979492;28;19930;-81
2023/06/21 13:23:02;;;;;;;;;;;29.00;54.80;;;;;;4968288;28;20349;-81
2023/06/21 13:25:29;;;;;;;;;;;29.10;52.30;;;;;;4983764;28;20081;-81
2023/06/21 13:27:56;;;;;;;;;;;29.30;55.80;;;;;;4965448;28;19936;-80
2023/06/21 13:30:23;;;;;;;;;;;29.40;49.90;;;;;;4975141;28;20354;-81
2023/06/21 13:32:50;;;;;;;;;;;29.40;50.40;;;;;;4982802;28;20020;-84
2023/06/21 13:35:17;;;;;;;;;;;29.10;51.50;;;;;;4959246;28;20391;-81
2023/06/21 13:37:43;;;;;;;;;;;29.10;52.60;;;;;;4983737;28;20057;-83
2023/06/21 13:40:11;;;;;;;;;;;29.10;53.90;;;;;;4976467;28;19962;-81
2023/06/21 13:42:37;;;;;;;;;;;28.90;52.10;;;;;;4985290;28;19934;-80
2023/06/21 13:45:04;;;;;;;;;;;28.80;53.80;;;;;;4960104;28;19936;-85
2023/06/21 13:47:31;;;;;;;;;;;28.80;52.80;;;;;;4990826;28;20040;-82
2023/06/21 13:50:00;;;;;;;;;;;28.60;52.30;;;;;;4976553;28;19933;-83
2023/06/21 13:52:31;;;;;;;;;;;28.60;54.00;;;;;;4969538;28;19933;-78
2023/06/21 13:54:58;;;;;;;;;;;28.80;54.90;;;;;;4984087;28;20008;-83
2023/06/21 13:57:25;;;;;;;;;;;28.90;53.60;;;;;;4986006;28;19969;-82
2023/06/21 13:59:52;;;;;;;;;;;29.00;53.20;;;;;;4966894;28;20469;-83
2023/06/21 14:02:19;;;;;;;;;;;29.10;53.10;;;;;;4964522;28;19969;-83
2023/06/21 14:04:45;;;;;;;;;;;29.10;51.40;;;;;;4968543;28;20025;-82
2023/06/21 14:07:13;;;;;;;;;;;29.20;51.80;;;;;;4983256;28;19940;-81
2023/06/21 14:09:44;;;;;;;;;;;29.20;50.50;;;;;;4986122;28;19977;-84
2023/06/21 14:12:11;;;;;;;;;;;29.20;51.00;;;;;;4958049;28;19976;-80
2023/06/21 14:14:39;;;;;;;;;;;29.20;50.80;;;;;;4985015;28;19934;-81
2023/06/21 14:17:06;;;;;;;;;;;29.30;53.20;;;;;;4975901;28;20690;-81
2023/06/21 14:19:33;;;;;;;;;;;29.40;52.80;;;;;;4984243;28;19996;-80
2023/06/21 14:22:00;;;;;;;;;;;29.40;50.40;;;;;;4984626;28;19925;-80
2023/06/21 14:24:27;;;;;;;;;;;29.40;49.10;;;;;;4980531;28;19930;-81